sensor_id;sensor_type;location;lat;lon;timestamp;temperature;humidity
6142;DHT22;71289;51.552;6.210;2023-11-21T00:01:25;8.90;99.90
6142;DHT22;71289;51.552;6.210;2023-11-21T00:03:51;8.90;99.90
6142;DHT22;71289;51.552;6.210;2023-11-21T00:06:19;8.80;99.90
6142;DHT22;71289;51.552;6.210;2023-11-21T00:08:45;8.90;99.90
6142;DHT22;71289;51.552;6.210;2023-11-21T00:11:11;8.90;99.90
6142;DHT22;71289;51.552;6.210;2023-11-21T00:13:36;8.90;99.90
6142;DHT22;71289;51.552;6.210;2023-11-21T00:16:03;8.90;99.90
6142;DHT22;71289;51.552;6.210;2023-11-21T00:18:29;8.90;99.90
6142;DHT22;71289;51.552;6.210;2023-11-21T00:20:55;8.90;99.90
6142;DHT22;71289;51.552;6.210;2023-11-21T00:23:20;8.90;99.90
6142;DHT22;71289;51.552;6.210;2023-11-21T00:25:46;9.00;99.90
6142;DHT22;71289;51.552;6.210;2023-11-21T00:28:11;9.10;99.90
6142;DHT22;71289;51.552;6.210;2023-11-21T00:30:37;9.10;99.90
6142;DHT22;71289;51.552;6.210;2023-11-21T00:33:03;9.10;99.90
6142;DHT22;71289;51.552;6.210;2023-11-21T00:35:29;9.10;99.90
6142;DHT22;71289;51.552;6.210;2023-11-21T00:37:55;9.00;99.90
6142;DHT22;71289;51.552;6.210;2023-11-21T00:40:21;9.00;99.90
6142;DHT22;71289;51.552;6.210;2023-11-21T00:42:47;9.00;99.90
6142;DHT22;71289;51.552;6.210;2023-11-21T00:45:13;9.00;99.90
6142;DHT22;71289;51.552;6.210;2023-11-21T00:47:38;9.00;99.90
6142;DHT22;71289;51.552;6.210;2023-11-21T00:50:04;9.00;99.90
6142;DHT22;71289;51.552;6.210;2023-11-21T00:52:31;9.00;99.90
6142;DHT22;71289;51.552;6.210;2023-11-21T00:54:57;9.00;99.90
6142;DHT22;71289;51.552;6.210;2023-11-21T00:57:24;9.00;99.90
6142;DHT22;71289;51.552;6.210;2023-11-21T00:59:50;9.00;99.90
6142;DHT22;71289;51.552;6.210;2023-11-21T01:02:15;9.00;99.90
6142;DHT22;71289;51.552;6.210;2023-11-21T01:04:41;9.10;99.90
6142;DHT22;71289;51.552;6.210;2023-11-21T01:07:06;9.10;99.90
6142;DHT22;71289;51.552;6.210;2023-11-21T01:09:32;9.10;99.90
6142;DHT22;71289;51.552;6.210;2023-11-21T01:11:58;9.10;99.90
6142;DHT22;71289;51.552;6.210;2023-11-21T01:14:25;9.20;99.90
6142;DHT22;71289;51.552;6.210;2023-11-21T01:16:52;9.20;99.90
6142;DHT22;71289;51.552;6.210;2023-11-21T01:19:18;9.10;99.90
6142;DHT22;71289;51.552;6.210;2023-11-21T01:21:43;9.20;99.90
6142;DHT22;71289;51.552;6.210;2023-11-21T01:24:09;9.20;99.90
6142;DHT22;71289;51.552;6.210;2023-11-21T01:26:34;9.30;99.90
6142;DHT22;71289;51.552;6.210;2023-11-21T01:29:00;9.20;99.90
6142;DHT22;71289;51.552;6.210;2023-11-21T01:31:25;9.20;99.90
6142;DHT22;71289;51.552;6.210;2023-11-21T01:33:54;9.10;99.90
6142;DHT22;71289;51.552;6.210;2023-11-21T01:36:20;9.20;99.90
6142;DHT22;71289;51.552;6.210;2023-11-21T01:38:46;9.20;99.90
6142;DHT22;71289;51.552;6.210;2023-11-21T01:41:13;9.30;99.90
6142;DHT22;71289;51.552;6.210;2023-11-21T01:43:39;9.40;99.90
6142;DHT22;71289;51.552;6.210;2023-11-21T01:46:05;9.30;99.90
6142;DHT22;71289;51.552;6.210;2023-11-21T01:48:32;9.40;99.90
6142;DHT22;71289;51.552;6.210;2023-11-21T01:50:58;9.40;99.90
6142;DHT22;71289;51.552;6.210;2023-11-21T01:53:27;9.40;99.90
6142;DHT22;71289;51.552;6.210;2023-11-21T01:55:54;9.50;99.90
6142;DHT22;71289;51.552;6.210;2023-11-21T01:58:20;9.50;99.90
6142;DHT22;71289;51.552;6.210;2023-11-21T02:00:47;9.50;99.90
6142;DHT22;71289;51.552;6.210;2023-11-21T02:03:14;9.50;99.90
6142;DHT22;71289;51.552;6.210;2023-11-21T02:05:41;9.60;99.90
6142;DHT22;71289;51.552;6.210;2023-11-21T02:08:07;9.60;99.90
6142;DHT22;71289;51.552;6.210;2023-11-21T02:10:34;9.60;99.90
6142;DHT22;71289;51.552;6.210;2023-11-21T02:13:02;9.60;99.90
6142;DHT22;71289;51.552;6.210;2023-11-21T02:15:28;9.60;99.90
6142;DHT22;71289;51.552;6.210;2023-11-21T02:17:54;9.60;99.90
6142;DHT22;71289;51.552;6.210;2023-11-21T02:20:23;9.60;99.90
6142;DHT22;71289;51.552;6.210;2023-11-21T02:22:57;9.60;99.90
6142;DHT22;71289;51.552;6.210;2023-11-21T02:28:01;9.60;99.90
6142;DHT22;71289;51.552;6.210;2023-11-21T02:30:27;9.60;99.90
6142;DHT22;71289;51.552;6.210;2023-11-21T02:32:53;9.60;99.90
6142;DHT22;71289;51.552;6.210;2023-11-21T02:35:20;9.60;99.90
6142;DHT22;71289;51.552;6.210;2023-11-21T02:37:47;9.60;99.90
6142;DHT22;71289;51.552;6.210;2023-11-21T02:40:12;9.60;99.90
6142;DHT22;71289;51.552;6.210;2023-11-21T02:42:39;9.60;99.90
6142;DHT22;71289;51.552;6.210;2023-11-21T02:45:07;9.60;99.90
6142;DHT22;71289;51.552;6.210;2023-11-21T02:47:33;9.60;99.90
6142;DHT22;71289;51.552;6.210;2023-11-21T02:49:59;9.60;99.90
6142;DHT22;71289;51.552;6.210;2023-11-21T02:52:24;9.60;99.90
6142;DHT22;71289;51.552;6.210;2023-11-21T02:54:50;9.60;99.90
6142;DHT22;71289;51.552;6.210;2023-11-21T02:57:16;9.60;99.90
6142;DHT22;71289;51.552;6.210;2023-11-21T02:59:42;9.70;99.90
6142;DHT22;71289;51.552;6.210;2023-11-21T03:02:07;9.70;99.90
6142;DHT22;71289;51.552;6.210;2023-11-21T03:04:36;9.70;99.90
6142;DHT22;71289;51.552;6.210;2023-11-21T03:07:01;9.70;99.90
6142;DHT22;71289;51.552;6.210;2023-11-21T03:09:27;9.70;99.90
6142;DHT22;71289;51.552;6.210;2023-11-21T03:11:53;9.60;99.90
6142;DHT22;71289;51.552;6.210;2023-11-21T03:14:19;9.70;99.90
6142;DHT22;71289;51.552;6.210;2023-11-21T03:16:45;9.70;99.90
6142;DHT22;71289;51.552;6.210;2023-11-21T03:19:11;9.70;99.90
6142;DHT22;71289;51.552;6.210;2023-11-21T03:21:36;9.70;99.90
6142;DHT22;71289;51.552;6.210;2023-11-21T03:24:03;9.70;99.90
6142;DHT22;71289;51.552;6.210;2023-11-21T03:26:28;9.70;99.90
6142;DHT22;71289;51.552;6.210;2023-11-21T03:28:55;9.80;99.90
6142;DHT22;71289;51.552;6.210;2023-11-21T03:31:21;9.80;99.90
6142;DHT22;71289;51.552;6.210;2023-11-21T03:33:46;9.90;99.90
6142;DHT22;71289;51.552;6.210;2023-11-21T03:36:12;9.90;99.90
6142;DHT22;71289;51.552;6.210;2023-11-21T03:38:40;9.90;99.90
6142;DHT22;71289;51.552;6.210;2023-11-21T03:41:07;9.90;99.90
6142;DHT22;71289;51.552;6.210;2023-11-21T03:43:35;9.90;99.90
6142;DHT22;71289;51.552;6.210;2023-11-21T03:46:01;9.90;99.90
6142;DHT22;71289;51.552;6.210;2023-11-21T03:48:27;9.80;99.90
6142;DHT22;71289;51.552;6.210;2023-11-21T03:50:52;9.80;99.90
6142;DHT22;71289;51.552;6.210;2023-11-21T03:53:18;9.80;99.90
6142;DHT22;71289;51.552;6.210;2023-11-21T03:55:43;9.80;99.90
6142;DHT22;71289;51.552;6.210;2023-11-21T03:58:09;9.80;99.90
6142;DHT22;71289;51.552;6.210;2023-11-21T04:00:34;9.70;99.90
6142;DHT22;71289;51.552;6.210;2023-11-21T04:03:00;9.60;99.90
6142;DHT22;71289;51.552;6.210;2023-11-21T04:05:25;9.60;99.90
6142;DHT22;71289;51.552;6.210;2023-11-21T04:07:51;9.50;99.90
6142;DHT22;71289;51.552;6.210;2023-11-21T04:10:17;9.60;99.90
6142;DHT22;71289;51.552;6.210;2023-11-21T04:12:43;9.60;99.90
6142;DHT22;71289;51.552;6.210;2023-11-21T04:15:10;9.60;99.90
6142;DHT22;71289;51.552;6.210;2023-11-21T04:17:36;9.60;99.90
6142;DHT22;71289;51.552;6.210;2023-11-21T04:20:03;9.60;99.90
6142;DHT22;71289;51.552;6.210;2023-11-21T04:22:33;9.70;99.90
6142;DHT22;71289;51.552;6.210;2023-11-21T04:24:59;9.70;99.90
6142;DHT22;71289;51.552;6.210;2023-11-21T04:27:24;9.70;99.90
6142;DHT22;71289;51.552;6.210;2023-11-21T04:29:50;9.70;99.90
6142;DHT22;71289;51.552;6.210;2023-11-21T04:32:15;9.70;99.90
6142;DHT22;71289;51.552;6.210;2023-11-21T04:34:41;9.70;99.90
6142;DHT22;71289;51.552;6.210;2023-11-21T04:37:07;9.70;99.90
6142;DHT22;71289;51.552;6.210;2023-11-21T04:39:32;9.80;99.90
6142;DHT22;71289;51.552;6.210;2023-11-21T04:41:58;9.80;99.90
6142;DHT22;71289;51.552;6.210;2023-11-21T04:44:23;9.90;99.90
6142;DHT22;71289;51.552;6.210;2023-11-21T04:46:48;9.80;99.90
6142;DHT22;71289;51.552;6.210;2023-11-21T04:49:14;9.70;99.90
6142;DHT22;71289;51.552;6.210;2023-11-21T04:51:40;9.80;99.90
6142;DHT22;71289;51.552;6.210;2023-11-21T04:54:05;9.70;99.90
6142;DHT22;71289;51.552;6.210;2023-11-21T04:56:31;9.70;99.90
6142;DHT22;71289;51.552;6.210;2023-11-21T04:58:57;9.70;99.90
6142;DHT22;71289;51.552;6.210;2023-11-21T05:01:22;9.80;99.90
6142;DHT22;71289;51.552;6.210;2023-11-21T05:03:48;9.80;99.90
6142;DHT22;71289;51.552;6.210;2023-11-21T05:06:14;9.80;99.90
6142;DHT22;71289;51.552;6.210;2023-11-21T05:08:40;9.80;99.90
6142;DHT22;71289;51.552;6.210;2023-11-21T05:11:06;9.80;99.90
6142;DHT22;71289;51.552;6.210;2023-11-21T05:13:34;9.80;99.90
6142;DHT22;71289;51.552;6.210;2023-11-21T05:15:59;9.80;99.90
6142;DHT22;71289;51.552;6.210;2023-11-21T05:18:25;9.70;99.90
6142;DHT22;71289;51.552;6.210;2023-11-21T05:20:52;9.70;99.90
6142;DHT22;71289;51.552;6.210;2023-11-21T05:23:19;9.70;99.90
6142;DHT22;71289;51.552;6.210;2023-11-21T05:25:44;9.60;99.90
6142;DHT22;71289;51.552;6.210;2023-11-21T05:28:12;9.60;99.90
6142;DHT22;71289;51.552;6.210;2023-11-21T05:30:37;9.60;99.90
6142;DHT22;71289;51.552;6.210;2023-11-21T05:33:04;9.50;99.90
6142;DHT22;71289;51.552;6.210;2023-11-21T05:35:30;9.60;99.90
6142;DHT22;71289;51.552;6.210;2023-11-21T05:37:56;9.50;99.90
6142;DHT22;71289;51.552;6.210;2023-11-21T05:40:22;9.50;99.90
6142;DHT22;71289;51.552;6.210;2023-11-21T05:42:48;9.50;99.90
6142;DHT22;71289;51.552;6.210;2023-11-21T05:45:14;9.80;99.90
6142;DHT22;71289;51.552;6.210;2023-11-21T05:47:42;9.50;99.90
6142;DHT22;71289;51.552;6.210;2023-11-21T05:50:09;9.50;99.90
6142;DHT22;71289;51.552;6.210;2023-11-21T05:52:38;9.60;99.90
6142;DHT22;71289;51.552;6.210;2023-11-21T05:55:07;9.50;99.90
6142;DHT22;71289;51.552;6.210;2023-11-21T05:57:34;9.50;99.90
6142;DHT22;71289;51.552;6.210;2023-11-21T06:00:03;9.50;99.90
6142;DHT22;71289;51.552;6.210;2023-11-21T06:02:30;9.50;99.90
6142;DHT22;71289;51.552;6.210;2023-11-21T06:04:57;9.50;99.90
6142;DHT22;71289;51.552;6.210;2023-11-21T06:07:22;9.50;99.90
6142;DHT22;71289;51.552;6.210;2023-11-21T06:09:48;9.50;99.90
6142;DHT22;71289;51.552;6.210;2023-11-21T06:12:15;9.50;99.90
6142;DHT22;71289;51.552;6.210;2023-11-21T06:14:41;9.50;99.90
6142;DHT22;71289;51.552;6.210;2023-11-21T06:17:06;9.50;99.90
6142;DHT22;71289;51.552;6.210;2023-11-21T06:19:32;9.40;99.90
6142;DHT22;71289;51.552;6.210;2023-11-21T06:21:57;9.50;99.90
6142;DHT22;71289;51.552;6.210;2023-11-21T06:24:23;9.50;99.90
6142;DHT22;71289;51.552;6.210;2023-11-21T06:26:49;9.40;99.90
6142;DHT22;71289;51.552;6.210;2023-11-21T06:29:14;9.40;99.90
6142;DHT22;71289;51.552;6.210;2023-11-21T06:31:40;9.40;99.90
6142;DHT22;71289;51.552;6.210;2023-11-21T06:34:06;9.40;99.90
6142;DHT22;71289;51.552;6.210;2023-11-21T06:36:31;9.50;99.90
6142;DHT22;71289;51.552;6.210;2023-11-21T06:38:57;9.50;99.90
6142;DHT22;71289;51.552;6.210;2023-11-21T06:41:22;9.50;99.90
6142;DHT22;71289;51.552;6.210;2023-11-21T06:43:48;9.40;99.90
6142;DHT22;71289;51.552;6.210;2023-11-21T06:46:14;9.40;99.90
6142;DHT22;71289;51.552;6.210;2023-11-21T06:48:42;9.30;99.90
6142;DHT22;71289;51.552;6.210;2023-11-21T06:51:08;9.30;99.90
6142;DHT22;71289;51.552;6.210;2023-11-21T06:53:33;9.30;99.90
6142;DHT22;71289;51.552;6.210;2023-11-21T06:55:59;9.40;99.90
6142;DHT22;71289;51.552;6.210;2023-11-21T06:58:25;9.30;99.90
6142;DHT22;71289;51.552;6.210;2023-11-21T07:00:50;9.30;99.90
6142;DHT22;71289;51.552;6.210;2023-11-21T07:03:17;9.30;99.90
6142;DHT22;71289;51.552;6.210;2023-11-21T07:05:44;9.20;99.90
6142;DHT22;71289;51.552;6.210;2023-11-21T07:08:10;9.20;99.90
6142;DHT22;71289;51.552;6.210;2023-11-21T07:10:35;9.20;99.90
6142;DHT22;71289;51.552;6.210;2023-11-21T07:13:02;9.20;99.90
6142;DHT22;71289;51.552;6.210;2023-11-21T07:15:27;9.20;99.90
6142;DHT22;71289;51.552;6.210;2023-11-21T07:17:53;9.30;99.90
6142;DHT22;71289;51.552;6.210;2023-11-21T07:20:19;9.30;99.90
6142;DHT22;71289;51.552;6.210;2023-11-21T07:22:45;9.30;99.90
6142;DHT22;71289;51.552;6.210;2023-11-21T07:25:10;9.30;99.90
6142;DHT22;71289;51.552;6.210;2023-11-21T07:27:36;9.30;99.90
6142;DHT22;71289;51.552;6.210;2023-11-21T07:30:03;9.30;99.90
6142;DHT22;71289;51.552;6.210;2023-11-21T07:32:31;9.30;99.90
6142;DHT22;71289;51.552;6.210;2023-11-21T07:34:56;9.30;99.90
6142;DHT22;71289;51.552;6.210;2023-11-21T07:37:23;9.30;99.90
6142;DHT22;71289;51.552;6.210;2023-11-21T07:39:49;9.30;99.90
6142;DHT22;71289;51.552;6.210;2023-11-21T07:42:14;9.30;99.90
6142;DHT22;71289;51.552;6.210;2023-11-21T07:44:40;9.30;99.90
6142;DHT22;71289;51.552;6.210;2023-11-21T07:47:05;9.20;99.90
6142;DHT22;71289;51.552;6.210;2023-11-21T07:49:31;9.20;99.90
6142;DHT22;71289;51.552;6.210;2023-11-21T07:51:56;9.20;99.90
6142;DHT22;71289;51.552;6.210;2023-11-21T07:54:22;9.20;99.90
6142;DHT22;71289;51.552;6.210;2023-11-21T07:56:47;9.30;99.90
6142;DHT22;71289;51.552;6.210;2023-11-21T07:59:13;9.30;99.90
6142;DHT22;71289;51.552;6.210;2023-11-21T08:01:39;9.30;99.90
6142;DHT22;71289;51.552;6.210;2023-11-21T08:04:05;9.40;99.90
6142;DHT22;71289;51.552;6.210;2023-11-21T08:06:32;9.40;99.90
6142;DHT22;71289;51.552;6.210;2023-11-21T08:08:58;9.30;99.90
6142;DHT22;71289;51.552;6.210;2023-11-21T08:11:23;9.20;99.90
6142;DHT22;71289;51.552;6.210;2023-11-21T08:13:49;9.20;99.90
6142;DHT22;71289;51.552;6.210;2023-11-21T08:16:14;9.10;99.90
6142;DHT22;71289;51.552;6.210;2023-11-21T08:18:41;9.10;99.90
6142;DHT22;71289;51.552;6.210;2023-11-21T08:21:06;9.10;99.90
6142;DHT22;71289;51.552;6.210;2023-11-21T08:23:33;9.00;99.90
6142;DHT22;71289;51.552;6.210;2023-11-21T08:25:59;9.00;99.90
6142;DHT22;71289;51.552;6.210;2023-11-21T08:28:25;8.90;99.90
6142;DHT22;71289;51.552;6.210;2023-11-21T08:30:53;9.00;99.90
6142;DHT22;71289;51.552;6.210;2023-11-21T08:33:22;8.90;99.90
6142;DHT22;71289;51.552;6.210;2023-11-21T08:35:48;9.00;99.90
6142;DHT22;71289;51.552;6.210;2023-11-21T08:38:13;9.00;99.90
6142;DHT22;71289;51.552;6.210;2023-11-21T08:40:39;9.00;99.90
6142;DHT22;71289;51.552;6.210;2023-11-21T08:43:04;9.10;99.90
6142;DHT22;71289;51.552;6.210;2023-11-21T08:45:30;9.20;99.90
6142;DHT22;71289;51.552;6.210;2023-11-21T08:47:56;9.30;99.90
6142;DHT22;71289;51.552;6.210;2023-11-21T08:50:22;9.30;99.90
6142;DHT22;71289;51.552;6.210;2023-11-21T08:52:48;9.40;99.90
6142;DHT22;71289;51.552;6.210;2023-11-21T08:55:13;9.40;99.90
6142;DHT22;71289;51.552;6.210;2023-11-21T08:57:40;9.40;99.90
6142;DHT22;71289;51.552;6.210;2023-11-21T09:00:07;9.50;99.90
6142;DHT22;71289;51.552;6.210;2023-11-21T09:02:39;9.50;99.90
6142;DHT22;71289;51.552;6.210;2023-11-21T09:05:07;9.50;99.90
6142;DHT22;71289;51.552;6.210;2023-11-21T09:07:34;9.40;99.90
6142;DHT22;71289;51.552;6.210;2023-11-21T09:10:00;9.40;99.90
6142;DHT22;71289;51.552;6.210;2023-11-21T09:12:25;9.40;99.90
6142;DHT22;71289;51.552;6.210;2023-11-21T09:14:51;9.50;99.90
6142;DHT22;71289;51.552;6.210;2023-11-21T09:17:17;9.50;99.90
6142;DHT22;71289;51.552;6.210;2023-11-21T09:19:42;9.60;99.90
6142;DHT22;71289;51.552;6.210;2023-11-21T09:22:15;9.60;99.90
6142;DHT22;71289;51.552;6.210;2023-11-21T09:24:41;9.60;99.90
6142;DHT22;71289;51.552;6.210;2023-11-21T09:27:08;9.70;99.90
6142;DHT22;71289;51.552;6.210;2023-11-21T09:29:35;9.70;99.90
6142;DHT22;71289;51.552;6.210;2023-11-21T09:32:00;9.80;99.90
6142;DHT22;71289;51.552;6.210;2023-11-21T09:34:26;9.70;99.90
6142;DHT22;71289;51.552;6.210;2023-11-21T09:36:52;9.70;99.90
6142;DHT22;71289;51.552;6.210;2023-11-21T09:39:18;9.70;99.90
6142;DHT22;71289;51.552;6.210;2023-11-21T09:41:48;9.70;99.90
6142;DHT22;71289;51.552;6.210;2023-11-21T09:44:18;9.70;99.90
6142;DHT22;71289;51.552;6.210;2023-11-21T09:46:47;9.70;99.90
6142;DHT22;71289;51.552;6.210;2023-11-21T09:49:18;9.70;99.90
6142;DHT22;71289;51.552;6.210;2023-11-21T09:51:48;9.80;99.90
6142;DHT22;71289;51.552;6.210;2023-11-21T09:54:15;9.70;99.90
6142;DHT22;71289;51.552;6.210;2023-11-21T09:56:41;9.80;99.90
6142;DHT22;71289;51.552;6.210;2023-11-21T09:59:13;9.80;99.90
6142;DHT22;71289;51.552;6.210;2023-11-21T10:01:40;9.90;99.90
6142;DHT22;71289;51.552;6.210;2023-11-21T10:04:06;9.90;99.90
6142;DHT22;71289;51.552;6.210;2023-11-21T10:06:40;9.90;99.90
6142;DHT22;71289;51.552;6.210;2023-11-21T10:09:09;9.80;99.90
6142;DHT22;71289;51.552;6.210;2023-11-21T10:11:40;9.90;99.90
6142;DHT22;71289;51.552;6.210;2023-11-21T10:14:08;10.00;99.90
6142;DHT22;71289;51.552;6.210;2023-11-21T10:16:36;9.90;99.90
6142;DHT22;71289;51.552;6.210;2023-11-21T10:19:04;9.90;99.90
6142;DHT22;71289;51.552;6.210;2023-11-21T10:21:32;10.00;99.90
6142;DHT22;71289;51.552;6.210;2023-11-21T10:23:58;10.00;99.90
6142;DHT22;71289;51.552;6.210;2023-11-21T10:26:26;10.10;99.90
6142;DHT22;71289;51.552;6.210;2023-11-21T10:28:57;10.10;99.90
6142;DHT22;71289;51.552;6.210;2023-11-21T10:31:23;10.20;99.90
6142;DHT22;71289;51.552;6.210;2023-11-21T10:33:51;10.30;99.90
6142;DHT22;71289;51.552;6.210;2023-11-21T10:36:27;10.30;99.90
6142;DHT22;71289;51.552;6.210;2023-11-21T10:38:54;10.30;99.90
6142;DHT22;71289;51.552;6.210;2023-11-21T10:41:20;10.40;99.90
6142;DHT22;71289;51.552;6.210;2023-11-21T10:43:46;10.40;99.90
6142;DHT22;71289;51.552;6.210;2023-11-21T10:46:11;10.50;99.90
6142;DHT22;71289;51.552;6.210;2023-11-21T10:48:37;10.50;99.90
6142;DHT22;71289;51.552;6.210;2023-11-21T10:51:07;10.60;99.90
6142;DHT22;71289;51.552;6.210;2023-11-21T10:53:33;10.60;99.90
6142;DHT22;71289;51.552;6.210;2023-11-21T10:56:06;10.60;99.90
6142;DHT22;71289;51.552;6.210;2023-11-21T10:58:35;10.70;99.90
6142;DHT22;71289;51.552;6.210;2023-11-21T11:01:02;10.70;99.90
6142;DHT22;71289;51.552;6.210;2023-11-21T11:03:32;10.70;99.90
6142;DHT22;71289;51.552;6.210;2023-11-21T11:05:59;10.70;99.90
6142;DHT22;71289;51.552;6.210;2023-11-21T11:08:26;10.70;99.90
6142;DHT22;71289;51.552;6.210;2023-11-21T11:10:53;10.70;99.90
6142;DHT22;71289;51.552;6.210;2023-11-21T11:13:18;10.70;99.90
6142;DHT22;71289;51.552;6.210;2023-11-21T11:15:47;10.80;99.90
6142;DHT22;71289;51.552;6.210;2023-11-21T11:18:14;10.80;99.90
6142;DHT22;71289;51.552;6.210;2023-11-21T11:20:42;10.80;99.90
6142;DHT22;71289;51.552;6.210;2023-11-21T11:23:59;10.80;99.90
6142;DHT22;71289;51.552;6.210;2023-11-21T11:26:55;10.80;99.90
6142;DHT22;71289;51.552;6.210;2023-11-21T11:29:59;10.70;99.90
6142;DHT22;71289;51.552;6.210;2023-11-21T11:35:24;10.60;99.90
6142;DHT22;71289;51.552;6.210;2023-11-21T11:37:52;10.50;99.90
6142;DHT22;71289;51.552;6.210;2023-11-21T11:40:18;10.60;99.90
6142;DHT22;71289;51.552;6.210;2023-11-21T11:42:56;10.60;99.90
6142;DHT22;71289;51.552;6.210;2023-11-21T11:45:26;10.60;99.90
6142;DHT22;71289;51.552;6.210;2023-11-21T11:47:57;10.60;99.90
6142;DHT22;71289;51.552;6.210;2023-11-21T11:50:23;10.70;99.90
6142;DHT22;71289;51.552;6.210;2023-11-21T11:52:52;10.70;99.90
6142;DHT22;71289;51.552;6.210;2023-11-21T11:55:21;10.80;99.90
6142;DHT22;71289;51.552;6.210;2023-11-21T11:57:52;10.70;99.90
6142;DHT22;71289;51.552;6.210;2023-11-21T12:02:59;10.70;99.90
6142;DHT22;71289;51.552;6.210;2023-11-21T12:05:27;10.80;99.90
6142;DHT22;71289;51.552;6.210;2023-11-21T12:07:57;10.80;99.90
6142;DHT22;71289;51.552;6.210;2023-11-21T12:10:23;10.90;99.90
6142;DHT22;71289;51.552;6.210;2023-11-21T12:12:52;10.90;99.90
6142;DHT22;71289;51.552;6.210;2023-11-21T12:15:21;11.00;99.90
6142;DHT22;71289;51.552;6.210;2023-11-21T12:17:47;11.00;99.90
6142;DHT22;71289;51.552;6.210;2023-11-21T12:20:16;11.00;99.90
6142;DHT22;71289;51.552;6.210;2023-11-21T12:22:47;11.00;99.90
6142;DHT22;71289;51.552;6.210;2023-11-21T12:25:17;11.00;99.90
6142;DHT22;71289;51.552;6.210;2023-11-21T12:27:48;11.00;99.90
6142;DHT22;71289;51.552;6.210;2023-11-21T12:30:19;11.00;99.90
6142;DHT22;71289;51.552;6.210;2023-11-21T12:32:48;11.10;99.90
6142;DHT22;71289;51.552;6.210;2023-11-21T12:35:14;11.10;99.90
6142;DHT22;71289;51.552;6.210;2023-11-21T12:37:40;11.00;99.90
6142;DHT22;71289;51.552;6.210;2023-11-21T12:40:09;10.90;99.90
6142;DHT22;71289;51.552;6.210;2023-11-21T12:42:39;10.90;99.90
6142;DHT22;71289;51.552;6.210;2023-11-21T12:45:18;11.00;99.90
6142;DHT22;71289;51.552;6.210;2023-11-21T12:47:46;10.90;99.90
6142;DHT22;71289;51.552;6.210;2023-11-21T12:50:12;10.80;99.90
6142;DHT22;71289;51.552;6.210;2023-11-21T12:52:47;10.70;99.90
6142;DHT22;71289;51.552;6.210;2023-11-21T12:55:17;10.60;99.90
6142;DHT22;71289;51.552;6.210;2023-11-21T12:57:44;10.60;99.90
6142;DHT22;71289;51.552;6.210;2023-11-21T13:00:11;10.60;99.90
6142;DHT22;71289;51.552;6.210;2023-11-21T13:02:42;10.70;99.90
6142;DHT22;71289;51.552;6.210;2023-11-21T13:05:09;10.80;99.90
6142;DHT22;71289;51.552;6.210;2023-11-21T13:07:46;10.90;99.90
6142;DHT22;71289;51.552;6.210;2023-11-21T13:10:16;10.80;99.90
6142;DHT22;71289;51.552;6.210;2023-11-21T13:12:46;10.80;99.90
6142;DHT22;71289;51.552;6.210;2023-11-21T13:15:14;10.80;99.90
6142;DHT22;71289;51.552;6.210;2023-11-21T13:17:42;10.70;99.90
6142;DHT22;71289;51.552;6.210;2023-11-21T13:20:10;10.80;99.90
6142;DHT22;71289;51.552;6.210;2023-11-21T13:22:45;10.80;99.90
6142;DHT22;71289;51.552;6.210;2023-11-21T13:25:11;10.80;99.90
6142;DHT22;71289;51.552;6.210;2023-11-21T13:27:37;10.80;99.90
6142;DHT22;71289;51.552;6.210;2023-11-21T13:30:02;10.90;99.90
6142;DHT22;71289;51.552;6.210;2023-11-21T13:32:29;10.90;99.90
6142;DHT22;71289;51.552;6.210;2023-11-21T13:34:54;10.80;99.90
6142;DHT22;71289;51.552;6.210;2023-11-21T13:37:20;10.80;99.90
6142;DHT22;71289;51.552;6.210;2023-11-21T13:39:46;10.70;99.90
6142;DHT22;71289;51.552;6.210;2023-11-21T13:42:15;10.80;99.90
6142;DHT22;71289;51.552;6.210;2023-11-21T13:44:42;10.70;99.90
6142;DHT22;71289;51.552;6.210;2023-11-21T13:47:12;10.70;99.90
6142;DHT22;71289;51.552;6.210;2023-11-21T13:49:37;10.80;99.90
6142;DHT22;71289;51.552;6.210;2023-11-21T13:52:06;10.70;99.90
6142;DHT22;71289;51.552;6.210;2023-11-21T13:54:32;10.70;99.90
6142;DHT22;71289;51.552;6.210;2023-11-21T13:56:58;10.60;99.90
6142;DHT22;71289;51.552;6.210;2023-11-21T13:59:25;10.60;99.90
6142;DHT22;71289;51.552;6.210;2023-11-21T14:01:53;10.50;99.90
6142;DHT22;71289;51.552;6.210;2023-11-21T14:04:24;10.50;99.90
6142;DHT22;71289;51.552;6.210;2023-11-21T14:06:55;10.60;99.90
6142;DHT22;71289;51.552;6.210;2023-11-21T14:09:22;10.60;99.90
6142;DHT22;71289;51.552;6.210;2023-11-21T14:11:54;10.60;99.90
6142;DHT22;71289;51.552;6.210;2023-11-21T14:14:23;10.60;99.90
6142;DHT22;71289;51.552;6.210;2023-11-21T14:16:50;10.60;99.90
6142;DHT22;71289;51.552;6.210;2023-11-21T14:19:16;10.50;99.90
6142;DHT22;71289;51.552;6.210;2023-11-21T14:21:43;10.40;99.90
6142;DHT22;71289;51.552;6.210;2023-11-21T14:24:09;10.50;99.90
6142;DHT22;71289;51.552;6.210;2023-11-21T14:26:35;10.40;99.90
6142;DHT22;71289;51.552;6.210;2023-11-21T14:29:00;10.60;99.90
6142;DHT22;71289;51.552;6.210;2023-11-21T14:31:26;10.40;99.90
6142;DHT22;71289;51.552;6.210;2023-11-21T14:33:54;10.40;99.90
6142;DHT22;71289;51.552;6.210;2023-11-21T14:36:20;10.40;99.90
6142;DHT22;71289;51.552;6.210;2023-11-21T14:38:45;10.40;99.90
6142;DHT22;71289;51.552;6.210;2023-11-21T14:41:11;10.40;99.90
6142;DHT22;71289;51.552;6.210;2023-11-21T14:43:37;10.40;99.90
6142;DHT22;71289;51.552;6.210;2023-11-21T14:46:04;10.40;99.90
6142;DHT22;71289;51.552;6.210;2023-11-21T14:48:34;10.40;99.90
6142;DHT22;71289;51.552;6.210;2023-11-21T14:51:09;10.40;99.90
6142;DHT22;71289;51.552;6.210;2023-11-21T14:53:40;10.40;99.90
6142;DHT22;71289;51.552;6.210;2023-11-21T14:56:22;10.40;99.90
6142;DHT22;71289;51.552;6.210;2023-11-21T14:58:58;10.40;99.90
6142;DHT22;71289;51.552;6.210;2023-11-21T15:01:44;10.40;99.90
6142;DHT22;71289;51.552;6.210;2023-11-21T15:04:21;10.40;99.90
6142;DHT22;71289;51.552;6.210;2023-11-21T15:07:06;10.40;99.90
6142;DHT22;71289;51.552;6.210;2023-11-21T15:09:32;10.40;99.90
6142;DHT22;71289;51.552;6.210;2023-11-21T15:12:01;10.40;99.90
6142;DHT22;71289;51.552;6.210;2023-11-21T15:14:46;10.50;99.90
6142;DHT22;71289;51.552;6.210;2023-11-21T15:17:15;10.40;99.90
6142;DHT22;71289;51.552;6.210;2023-11-21T15:19:48;10.40;99.90
6142;DHT22;71289;51.552;6.210;2023-11-21T15:22:15;10.40;99.90
6142;DHT22;71289;51.552;6.210;2023-11-21T15:24:42;10.40;99.90
6142;DHT22;71289;51.552;6.210;2023-11-21T15:27:10;10.50;99.90
6142;DHT22;71289;51.552;6.210;2023-11-21T15:29:36;10.40;99.90
6142;DHT22;71289;51.552;6.210;2023-11-21T15:32:02;10.40;99.90
6142;DHT22;71289;51.552;6.210;2023-11-21T15:34:27;10.40;99.90
6142;DHT22;71289;51.552;6.210;2023-11-21T15:36:55;10.30;99.90
6142;DHT22;71289;51.552;6.210;2023-11-21T15:39:20;10.40;99.90
6142;DHT22;71289;51.552;6.210;2023-11-21T15:41:54;10.40;99.90
6142;DHT22;71289;51.552;6.210;2023-11-21T15:44:20;10.40;99.90
6142;DHT22;71289;51.552;6.210;2023-11-21T15:46:45;10.40;99.90
6142;DHT22;71289;51.552;6.210;2023-11-21T15:49:11;10.30;99.90
6142;DHT22;71289;51.552;6.210;2023-11-21T15:51:44;10.20;99.90
6142;DHT22;71289;51.552;6.210;2023-11-21T15:54:21;10.20;99.90
6142;DHT22;71289;51.552;6.210;2023-11-21T15:56:50;10.20;99.90
6142;DHT22;71289;51.552;6.210;2023-11-21T15:59:17;10.20;99.90
6142;DHT22;71289;51.552;6.210;2023-11-21T16:01:43;10.20;99.90
6142;DHT22;71289;51.552;6.210;2023-11-21T16:04:13;10.10;99.90
6142;DHT22;71289;51.552;6.210;2023-11-21T16:06:46;10.00;99.90